Spring Hill, California
Current Conditions -  °F | °C
As of 10:40 AM on Saturday 25 Oct 2014 (Local Time) from KGOO Reporting Station
Overcast Overcast  
Wind Chill: 41°   Ceiling: 200
Heat Index: 46°   Visibility: 0.75mi
Dew Point: 46°   Wind: 13mph
Humidity: 100%   Direction: 200°SSW
Pressure: 30.09"   Gusts: 20mph
Location:  39.2183°N, 120.924°W
Report Text: KGOO 251740Z AUTO 20011G17KT 3/4SM OVC002 08/08 A3009 RMK AO1 P0011
Loading
Personal Weather Stations






























Interactive Weather Map New forecast layout! Learn more

10-Day Weather Forecast

Advertisements
Track Severe Weather on mobile